createdAt,value
2023-04-16T00:01:31.359Z,101083.16
2023-04-16T00:05:34.582Z,101093.22
2023-04-16T00:09:39.131Z,101092.88
2023-04-16T00:13:42.312Z,101093.53
2023-04-16T00:17:45.382Z,101085.22
2023-04-16T00:21:48.575Z,101079.81
2023-04-16T00:25:53.871Z,101096.34
2023-04-16T00:29:56.974Z,101085.44
2023-04-16T00:34:00.840Z,101084.41
2023-04-16T00:38:04.062Z,101074.69
2023-04-16T00:42:08.566Z,101081.47
2023-04-16T00:46:11.681Z,101084.38
2023-04-16T00:50:15.776Z,101078.66
2023-04-16T00:54:19.088Z,101079.41
2023-04-16T00:58:24.701Z,101087.28
2023-04-16T01:02:27.835Z,101078.38
2023-04-16T01:06:31.012Z,101083.53
2023-04-16T01:10:34.092Z,101081.00
2023-04-16T01:14:38.642Z,101089.63
2023-04-16T01:18:41.760Z,101087.28
2023-04-16T01:22:46.776Z,101080.13
2023-04-16T01:26:50.398Z,101083.09
2023-04-16T01:30:53.579Z,101088.25
2023-04-16T01:35:07.218Z,101101.50
2023-04-16T01:39:15.635Z,101088.25
2023-04-16T01:43:18.835Z,101095.38
2023-04-16T01:47:22.507Z,101095.03
2023-04-16T01:51:25.630Z,101094.56
2023-04-16T01:55:30.106Z,101100.47
2023-04-16T01:59:33.420Z,101109.69
2023-04-16T02:03:36.980Z,101102.53
2023-04-16T02:07:40.644Z,101102.16
2023-04-16T02:11:45.141Z,101096.72
2023-04-16T02:15:48.939Z,101094.34
2023-04-16T02:19:56.752Z,101098.78
2023-04-16T02:24:00.151Z,101108.50
2023-04-16T02:28:07.739Z,101100.19
2023-04-16T02:32:14.397Z,101109.38
2023-04-16T02:36:21.270Z,101111.44
2023-04-16T02:40:24.463Z,101119.75
2023-04-16T02:44:28.911Z,101118.88
2023-04-16T02:48:32.156Z,101117.84
2023-04-16T02:52:35.343Z,101118.13
2023-04-16T02:56:39.537Z,101118.66
2023-04-16T03:00:43.980Z,101127.84
2023-04-16T03:04:47.162Z,101128.72
2023-04-16T03:08:50.350Z,101127.19
2023-04-16T03:12:53.386Z,101131.91
2023-04-16T03:16:58.103Z,101127.84
2023-04-16T03:21:01.435Z,101132.09
2023-04-16T03:25:04.759Z,101137.56
2023-04-16T03:29:08.199Z,101138.94
2023-04-16T03:33:13.141Z,101147.97
2023-04-16T03:37:16.970Z,101151.72
2023-04-16T03:41:20.195Z,101158.50
2023-04-16T03:45:23.466Z,101149.19
2023-04-16T03:49:30.296Z,101153.03
2023-04-16T03:53:34.396Z,101152.06
2023-04-16T03:57:37.537Z,101157.16
2023-04-16T04:01:46.317Z,101146.16
2023-04-16T04:05:51.329Z,101152.94
2023-04-16T04:10:04.470Z,101159.84
2023-04-16T04:14:13.235Z,101159.47
2023-04-16T04:18:16.399Z,101154.38
2023-04-16T04:22:21.498Z,101152.88
2023-04-16T04:26:24.589Z,101155.09
2023-04-16T04:30:28.024Z,101163.28
2023-04-16T04:34:31.547Z,101166.00
2023-04-16T04:38:36.922Z,101165.28
2023-04-16T04:42:40.590Z,101175.16
2023-04-16T04:46:43.751Z,101176.84
2023-04-16T04:50:47.273Z,101175.31
2023-04-16T04:54:51.932Z,101182.25
2023-04-16T04:58:57.766Z,101188.00
2023-04-16T05:03:11.818Z,101192.78
2023-04-16T05:07:15.015Z,101200.81
2023-04-16T05:11:19.446Z,101201.16
2023-04-16T05:15:22.785Z,101197.22
2023-04-16T05:19:26.038Z,101211.47
2023-04-16T05:23:29.187Z,101213.22
2023-04-16T05:27:33.592Z,101210.59
2023-04-16T05:31:36.707Z,101215.72
2023-04-16T05:35:39.891Z,101221.38
2023-04-16T05:39:43.106Z,101227.13
2023-04-16T05:43:47.620Z,101226.78
2023-04-16T05:47:50.855Z,101229.13
2023-04-16T05:51:54.414Z,101242.78
2023-04-16T05:55:57.508Z,101250.59
2023-04-16T06:00:01.960Z,101241.47
2023-04-16T06:04:15.258Z,101252.44
2023-04-16T06:08:18.389Z,101251.63
2023-04-16T06:12:21.437Z,101255.19
2023-04-16T06:16:26.114Z,101264.69
2023-04-16T06:20:29.430Z,101259.25
2023-04-16T06:24:32.506Z,101268.81
2023-04-16T06:28:35.536Z,101272.72
2023-04-16T06:32:40.244Z,101261.44
2023-04-16T06:36:43.289Z,101284.97
2023-04-16T06:40:46.432Z,101281.22
2023-04-16T06:44:49.442Z,101276.41
2023-04-16T06:48:53.988Z,101282.66
2023-04-16T06:52:57.349Z,101290.16
2023-04-16T06:57:00.429Z,101299.84
2023-04-16T07:01:03.905Z,101293.00
2023-04-16T07:05:09.100Z,101291.41
2023-04-16T07:09:12.429Z,101306.06
2023-04-16T07:13:15.598Z,101304.22
2023-04-16T07:17:21.139Z,101300.72
2023-04-16T07:21:26.164Z,101308.78
2023-04-16T07:25:29.252Z,101304.94
2023-04-16T07:29:32.215Z,101302.53
2023-04-16T07:33:35.397Z,101320.47
2023-04-16T07:37:39.922Z,101315.13
2023-04-16T07:41:43.185Z,101318.16
2023-04-16T07:45:46.235Z,101328.72
2023-04-16T07:49:49.304Z,101333.81
2023-04-16T07:53:53.763Z,101335.22
2023-04-16T07:57:56.803Z,101339.88
2023-04-16T08:02:00.181Z,101341.84
2023-04-16T08:06:03.724Z,101342.66
2023-04-16T08:10:09.804Z,101332.47
2023-04-16T08:14:12.939Z,101343.69
2023-04-16T08:18:16.126Z,101342.31
2023-04-16T08:22:19.557Z,101339.22
2023-04-16T08:26:23.944Z,101352.50
2023-04-16T08:30:27.057Z,101352.13
2023-04-16T08:34:30.186Z,101351.84
2023-04-16T08:38:33.315Z,101357.59
2023-04-16T08:42:42.262Z,101355.84
2023-04-16T08:46:46.112Z,101363.00
2023-04-16T08:50:53.409Z,101363.69
2023-04-16T08:55:06.214Z,101375.50
2023-04-16T08:59:11.005Z,101371.03
2023-04-16T09:03:14.356Z,101378.78
2023-04-16T09:07:20.630Z,101373.22
2023-04-16T09:11:23.737Z,101377.78
2023-04-16T09:15:28.355Z,101377.41
2023-04-16T09:19:31.479Z,101367.22
2023-04-16T09:23:35.175Z,101371.84
2023-04-16T09:27:38.958Z,101374.03
2023-04-16T09:32:02.538Z,101365.56
2023-04-16T09:36:07.112Z,101362.72
2023-04-16T09:40:11.396Z,101360.25
2023-04-16T09:44:14.434Z,101356.13
2023-04-16T09:48:30.079Z,101346.50
2023-04-16T09:52:33.214Z,101351.97
2023-04-16T09:56:41.260Z,101350.34
2023-04-16T10:00:44.395Z,101336.50
2023-04-16T10:04:50.521Z,101332.06
2023-04-16T10:08:56.964Z,101325.88
2023-04-16T10:13:00.454Z,101319.44
2023-04-16T10:17:06.241Z,101305.97
2023-04-16T10:21:13.009Z,101288.13
2023-04-16T10:25:17.853Z,101275.22
2023-04-16T10:29:21.699Z,101279.19
2023-04-16T10:33:28.361Z,101276.75
2023-04-16T10:37:33.443Z,101275.75
2023-04-16T10:41:38.314Z,101267.97
2023-04-16T10:45:41.344Z,101254.88
2023-04-16T10:49:44.785Z,101250.56
2023-04-16T10:53:49.231Z,101255.31
2023-04-16T10:57:54.047Z,101257.00
2023-04-16T11:01:59.738Z,101237.56
2023-04-16T11:06:14.585Z,101239.59
2023-04-16T11:10:19.025Z,101253.41
2023-04-16T11:14:22.648Z,101252.78
2023-04-16T11:18:26.004Z,101245.63
2023-04-16T11:22:29.306Z,101245.97
2023-04-16T11:26:33.705Z,101247.81
2023-04-16T11:30:38.629Z,101247.44
2023-04-16T11:34:45.887Z,101245.59
2023-04-16T11:38:49.014Z,101248.88
2023-04-16T11:42:53.709Z,101244.75
2023-04-16T11:46:56.913Z,101244.31
2023-04-16T11:51:00.308Z,101248.53
2023-04-16T11:55:06.112Z,101249.97
2023-04-16T11:59:13.219Z,101247.13
2023-04-16T12:03:16.880Z,101248.25
2023-04-16T12:07:20.107Z,101253.09
2023-04-16T12:11:23.250Z,101257.69
2023-04-16T12:15:45.026Z,101263.91
2023-04-16T12:19:52.634Z,101264.03
2023-04-16T12:23:55.743Z,101269.81
2023-04-16T12:27:59.766Z,101265.00
2023-04-16T12:32:04.261Z,101270.09
2023-04-16T12:36:18.774Z,101270.53
2023-04-16T12:40:21.768Z,101272.22
2023-04-16T12:44:24.865Z,101267.38
2023-04-16T12:48:29.420Z,101272.63
2023-04-16T12:52:32.423Z,101265.03
2023-04-16T12:56:35.863Z,101277.00
2023-04-16T13:00:38.885Z,101273.13
2023-04-16T13:04:43.589Z,101269.66
2023-04-16T13:08:47.058Z,101268.06
2023-04-16T13:12:50.135Z,101267.16
2023-04-16T13:16:53.186Z,101263.09
2023-04-16T13:20:57.789Z,101276.56
2023-04-16T13:25:00.969Z,101267.47
2023-04-16T13:29:04.066Z,101264.97
2023-04-16T13:33:07.245Z,101266.97
2023-04-16T13:37:11.701Z,101267.00
2023-04-16T13:41:14.775Z,101255.34
2023-04-16T13:45:20.379Z,101265.28
2023-04-16T13:49:23.860Z,101259.97
2023-04-16T13:53:28.766Z,101259.72
2023-04-16T13:57:32.168Z,101265.78
2023-04-16T14:01:35.518Z,101254.66
2023-04-16T14:05:38.584Z,101255.19
2023-04-16T14:09:43.042Z,101258.09
2023-04-16T14:13:46.151Z,101257.19
2023-04-16T14:17:49.309Z,101249.69
2023-04-16T14:21:52.400Z,101248.72
2023-04-16T14:25:56.951Z,101242.06
2023-04-16T14:30:00.132Z,101258.47
2023-04-16T14:34:03.603Z,101256.38
2023-04-16T14:38:07.169Z,101263.38
2023-04-16T14:42:11.624Z,101272.59
2023-04-16T14:46:17.817Z,101276.00
2023-04-16T14:50:21.323Z,101264.19
2023-04-16T14:54:24.381Z,101271.81
2023-04-16T14:58:28.871Z,101272.66
2023-04-16T15:02:32.023Z,101264.63
2023-04-16T15:06:36.019Z,101254.25
2023-04-16T15:10:39.337Z,101262.50
2023-04-16T15:14:43.754Z,101264.22
2023-04-16T15:18:46.861Z,101261.03
2023-04-16T15:22:50.002Z,101268.66
2023-04-16T15:26:53.121Z,101276.84
2023-04-16T15:30:58.518Z,101278.13
2023-04-16T15:35:03.553Z,101301.72
2023-04-16T15:39:06.616Z,101312.63
2023-04-16T15:43:10.627Z,101314.19
2023-04-16T15:47:15.029Z,101324.69
2023-04-16T15:51:18.206Z,101325.59
2023-04-16T15:55:21.448Z,101325.25
2023-04-16T15:59:24.496Z,101320.47
2023-04-16T16:03:29.650Z,101313.16
2023-04-16T16:07:33.233Z,101314.81
2023-04-16T16:11:37.869Z,101311.19
2023-04-16T16:15:41.965Z,101310.97
2023-04-16T16:19:46.667Z,101309.69
2023-04-16T16:23:50.176Z,101315.63
2023-04-16T16:27:55.262Z,101320.25
2023-04-16T16:31:58.445Z,101320.88
2023-04-16T16:36:03.060Z,101326.94
2023-04-16T16:40:07.736Z,101325.25
2023-04-16T16:44:10.961Z,101322.28
2023-04-16T16:48:14.035Z,101331.31
2023-04-16T16:52:18.548Z,101320.34
2023-04-16T16:56:21.675Z,101333.25
2023-04-16T17:00:24.984Z,101332.38
2023-04-16T17:04:28.051Z,101340.84
2023-04-16T17:08:32.482Z,101338.28
2023-04-16T17:12:35.652Z,101336.19
2023-04-16T17:16:39.450Z,101341.00
2023-04-16T17:20:42.844Z,101344.22
2023-04-16T17:24:47.983Z,101349.94
2023-04-16T17:28:51.328Z,101351.41
2023-04-16T17:32:54.860Z,101349.53
2023-04-16T17:36:58.032Z,101348.84
2023-04-16T17:41:02.605Z,101361.50
2023-04-16T17:45:06.396Z,101360.63
2023-04-16T17:49:09.452Z,101364.81
2023-04-16T17:53:12.781Z,101366.28
2023-04-16T17:57:17.272Z,101361.63
2023-04-16T18:01:22.848Z,101355.56
2023-04-16T18:05:26.377Z,101378.94
2023-04-16T18:09:29.621Z,101378.16
2023-04-16T18:13:35.657Z,101383.84
2023-04-16T18:17:38.986Z,101381.66
2023-04-16T18:21:42.845Z,101395.91
2023-04-16T18:25:48.770Z,101394.97
2023-04-16T18:29:55.149Z,101401.28
2023-04-16T18:33:58.768Z,101399.47
2023-04-16T18:38:02.387Z,101414.88
2023-04-16T18:42:05.796Z,101413.56
2023-04-16T18:46:10.155Z,101422.94
2023-04-16T18:50:14.051Z,101414.50
2023-04-16T18:54:17.600Z,101417.97
2023-04-16T18:58:20.649Z,101419.41
2023-04-16T19:02:25.249Z,101420.44
2023-04-16T19:06:29.304Z,101430.06
2023-04-16T19:10:32.384Z,101424.78
2023-04-16T19:14:35.486Z,101437.34
2023-04-16T19:18:40.241Z,101443.03
2023-04-16T19:22:43.644Z,101450.00
2023-04-16T19:26:46.914Z,101449.44
2023-04-16T19:30:51.448Z,101453.22
2023-04-16T19:34:55.921Z,101440.97
2023-04-16T19:38:59.324Z,101450.22
2023-04-16T19:43:02.459Z,101455.13
2023-04-16T19:47:06.887Z,101452.50
2023-04-16T19:51:11.428Z,101460.53
2023-04-16T19:55:14.666Z,101463.63
2023-04-16T19:59:17.686Z,101470.97
2023-04-16T20:03:21.105Z,101467.22
2023-04-16T20:07:26.007Z,101468.44
2023-04-16T20:11:29.486Z,101469.78
2023-04-16T20:15:32.569Z,101475.13
2023-04-16T20:19:37.914Z,101471.34
2023-04-16T20:23:42.573Z,101474.47
2023-04-16T20:27:45.896Z,101473.44
2023-04-16T20:31:49.224Z,101475.50
2023-04-16T20:35:52.348Z,101479.69
2023-04-16T20:39:56.874Z,101480.53
2023-04-16T20:44:05.303Z,101477.63
2023-04-16T20:48:08.647Z,101479.47
2023-04-16T20:52:14.043Z,101482.22
2023-04-16T20:56:19.043Z,101476.66
2023-04-16T21:00:22.487Z,101469.00
2023-04-16T21:04:25.956Z,101474.97
2023-04-16T21:08:29.194Z,101472.22
2023-04-16T21:12:33.916Z,101476.09
2023-04-16T21:16:37.312Z,101479.84
2023-04-16T21:20:41.882Z,101477.53
2023-04-16T21:24:44.956Z,101470.00
2023-04-16T21:28:49.957Z,101473.78
2023-04-16T21:32:54.270Z,101471.69
2023-04-16T21:36:57.942Z,101474.81
2023-04-16T21:41:02.581Z,101466.97
2023-04-16T21:45:08.786Z,101483.38
2023-04-16T21:49:12.253Z,101475.75
2023-04-16T21:53:15.353Z,101472.81
2023-04-16T21:57:18.466Z,101477.91
2023-04-16T22:01:23.927Z,101484.72
2023-04-16T22:05:27.406Z,101478.56
2023-04-16T22:09:30.737Z,101479.97
2023-04-16T22:13:33.747Z,101490.91
2023-04-16T22:17:38.813Z,101482.88
2023-04-16T22:21:41.923Z,101482.41
2023-04-16T22:25:45.015Z,101489.22
2023-04-16T22:29:48.171Z,101479.03
2023-04-16T22:33:52.616Z,101481.47
2023-04-16T22:37:55.641Z,101484.66
2023-04-16T22:41:59.010Z,101488.69
2023-04-16T22:46:04.586Z,101485.97
2023-04-16T22:50:11.050Z,101479.97
2023-04-16T22:54:14.192Z,101469.94
2023-04-16T22:58:20.514Z,101473.34
2023-04-16T23:02:24.688Z,101478.81
2023-04-16T23:06:29.161Z,101477.09
2023-04-16T23:10:32.206Z,101476.63
2023-04-16T23:14:35.298Z,101478.50
2023-04-16T23:18:38.358Z,101474.66
2023-04-16T23:22:42.800Z,101470.31
2023-04-16T23:26:45.957Z,101475.09
2023-04-16T23:30:52.565Z,101472.66
2023-04-16T23:34:55.619Z,101475.41
2023-04-16T23:39:00.137Z,101466.53
2023-04-16T23:43:03.204Z,101466.53
2023-04-16T23:47:06.559Z,101472.00
2023-04-16T23:51:09.603Z,101481.53
2023-04-16T23:55:14.109Z,101472.88
2023-04-16T23:59:17.191Z,101487.56
